sensor_id;sensor_type;location;lat;lon;timestamp;P1;durP1;ratioP1;P2;durP2;ratioP2
46931;SDS011;32670;51.464;11.964;2023-09-07T00:01:16;5.27;;;3.40;;
46931;SDS011;32670;51.464;11.964;2023-09-07T00:03:41;4.10;;;3.40;;
46931;SDS011;32670;51.464;11.964;2023-09-07T00:06:07;3.90;;;3.60;;
46931;SDS011;32670;51.464;11.964;2023-09-07T00:08:33;3.77;;;3.47;;
46931;SDS011;32670;51.464;11.964;2023-09-07T00:11:02;3.63;;;3.30;;
46931;SDS011;32670;51.464;11.964;2023-09-07T00:13:28;5.40;;;3.87;;
46931;SDS011;32670;51.464;11.964;2023-09-07T00:15:57;5.33;;;3.50;;
46931;SDS011;32670;51.464;11.964;2023-09-07T00:18:24;4.07;;;3.63;;
46931;SDS011;32670;51.464;11.964;2023-09-07T00:20:50;4.40;;;3.60;;
46931;SDS011;32670;51.464;11.964;2023-09-07T00:23:15;4.20;;;3.70;;
46931;SDS011;32670;51.464;11.964;2023-09-07T00:25:41;3.90;;;3.60;;
46931;SDS011;32670;51.464;11.964;2023-09-07T00:28:06;4.10;;;3.77;;
46931;SDS011;32670;51.464;11.964;2023-09-07T00:30:32;3.90;;;3.60;;
46931;SDS011;32670;51.464;11.964;2023-09-07T00:32:57;4.03;;;3.50;;
46931;SDS011;32670;51.464;11.964;2023-09-07T00:35:23;3.90;;;3.60;;
46931;SDS011;32670;51.464;11.964;2023-09-07T00:37:48;3.70;;;3.40;;
46931;SDS011;32670;51.464;11.964;2023-09-07T00:40:14;4.67;;;3.97;;
46931;SDS011;32670;51.464;11.964;2023-09-07T00:42:39;4.17;;;3.60;;
46931;SDS011;32670;51.464;11.964;2023-09-07T00:45:06;4.07;;;3.73;;
46931;SDS011;32670;51.464;11.964;2023-09-07T00:47:32;6.27;;;3.87;;
46931;SDS011;32670;51.464;11.964;2023-09-07T00:50:00;4.13;;;3.70;;
46931;SDS011;32670;51.464;11.964;2023-09-07T00:52:25;4.50;;;3.57;;
46931;SDS011;32670;51.464;11.964;2023-09-07T00:54:52;4.80;;;3.60;;
46931;SDS011;32670;51.464;11.964;2023-09-07T00:57:18;4.07;;;3.60;;
46931;SDS011;32670;51.464;11.964;2023-09-07T00:59:43;3.63;;;3.30;;
46931;SDS011;32670;51.464;11.964;2023-09-07T01:02:08;3.90;;;3.50;;
46931;SDS011;32670;51.464;11.964;2023-09-07T01:04:34;5.30;;;3.97;;
46931;SDS011;32670;51.464;11.964;2023-09-07T01:07:03;6.13;;;4.00;;
46931;SDS011;32670;51.464;11.964;2023-09-07T01:09:38;4.13;;;3.73;;
46931;SDS011;32670;51.464;11.964;2023-09-07T01:12:07;4.30;;;3.90;;
46931;SDS011;32670;51.464;11.964;2023-09-07T01:14:36;5.13;;;3.80;;
46931;SDS011;32670;51.464;11.964;2023-09-07T01:17:01;4.33;;;3.77;;
46931;SDS011;32670;51.464;11.964;2023-09-07T01:19:28;5.20;;;3.83;;
46931;SDS011;32670;51.464;11.964;2023-09-07T01:21:54;4.43;;;4.03;;
46931;SDS011;32670;51.464;11.964;2023-09-07T01:24:20;4.73;;;3.87;;
46931;SDS011;32670;51.464;11.964;2023-09-07T01:26:47;4.83;;;3.80;;
46931;SDS011;32670;51.464;11.964;2023-09-07T01:29:14;4.70;;;4.30;;
46931;SDS011;32670;51.464;11.964;2023-09-07T01:31:41;4.80;;;4.30;;
46931;SDS011;32670;51.464;11.964;2023-09-07T01:34:07;4.20;;;3.80;;
46931;SDS011;32670;51.464;11.964;2023-09-07T01:36:33;4.80;;;4.30;;
46931;SDS011;32670;51.464;11.964;2023-09-07T01:38:59;5.40;;;3.90;;
46931;SDS011;32670;51.464;11.964;2023-09-07T01:41:25;4.40;;;4.00;;
46931;SDS011;32670;51.464;11.964;2023-09-07T01:43:50;4.47;;;4.03;;
46931;SDS011;32670;51.464;11.964;2023-09-07T01:46:16;6.37;;;4.13;;
46931;SDS011;32670;51.464;11.964;2023-09-07T01:48:41;6.73;;;4.20;;
46931;SDS011;32670;51.464;11.964;2023-09-07T01:51:07;4.00;;;3.67;;
46931;SDS011;32670;51.464;11.964;2023-09-07T01:53:33;4.07;;;3.77;;
46931;SDS011;32670;51.464;11.964;2023-09-07T01:55:58;4.53;;;4.10;;
46931;SDS011;32670;51.464;11.964;2023-09-07T01:58:24;4.37;;;3.87;;
46931;SDS011;32670;51.464;11.964;2023-09-07T02:00:50;4.33;;;3.93;;
46931;SDS011;32670;51.464;11.964;2023-09-07T02:03:17;4.37;;;4.00;;
46931;SDS011;32670;51.464;11.964;2023-09-07T02:05:43;4.27;;;3.83;;
46931;SDS011;32670;51.464;11.964;2023-09-07T02:08:10;5.47;;;3.80;;
46931;SDS011;32670;51.464;11.964;2023-09-07T02:10:36;4.10;;;3.80;;
46931;SDS011;32670;51.464;11.964;2023-09-07T02:13:02;3.90;;;3.57;;
46931;SDS011;32670;51.464;11.964;2023-09-07T02:15:28;4.87;;;4.40;;
46931;SDS011;32670;51.464;11.964;2023-09-07T02:17:54;4.73;;;4.03;;
46931;SDS011;32670;51.464;11.964;2023-09-07T02:20:19;7.37;;;4.30;;
46931;SDS011;32670;51.464;11.964;2023-09-07T02:22:45;4.73;;;3.93;;
46931;SDS011;32670;51.464;11.964;2023-09-07T02:25:10;4.30;;;3.90;;
46931;SDS011;32670;51.464;11.964;2023-09-07T02:27:36;4.60;;;4.13;;
46931;SDS011;32670;51.464;11.964;2023-09-07T02:30:04;5.83;;;4.07;;
46931;SDS011;32670;51.464;11.964;2023-09-07T02:32:33;5.17;;;4.50;;
46931;SDS011;32670;51.464;11.964;2023-09-07T02:34:59;4.93;;;4.43;;
46931;SDS011;32670;51.464;11.964;2023-09-07T02:37:24;4.80;;;4.40;;
46931;SDS011;32670;51.464;11.964;2023-09-07T02:39:50;4.90;;;4.20;;
46931;SDS011;32670;51.464;11.964;2023-09-07T02:42:15;4.90;;;3.73;;
46931;SDS011;32670;51.464;11.964;2023-09-07T02:44:41;4.80;;;4.40;;
46931;SDS011;32670;51.464;11.964;2023-09-07T02:47:06;4.87;;;4.37;;
46931;SDS011;32670;51.464;11.964;2023-09-07T02:49:32;5.00;;;4.20;;
46931;SDS011;32670;51.464;11.964;2023-09-07T02:51:57;4.50;;;4.10;;
46931;SDS011;32670;51.464;11.964;2023-09-07T02:54:23;4.73;;;4.33;;
46931;SDS011;32670;51.464;11.964;2023-09-07T02:56:49;4.83;;;4.30;;
46931;SDS011;32670;51.464;11.964;2023-09-07T02:59:14;5.53;;;4.30;;
46931;SDS011;32670;51.464;11.964;2023-09-07T03:01:39;4.50;;;4.10;;
46931;SDS011;32670;51.464;11.964;2023-09-07T03:04:05;5.90;;;4.20;;
46931;SDS011;32670;51.464;11.964;2023-09-07T03:06:31;4.93;;;4.37;;
46931;SDS011;32670;51.464;11.964;2023-09-07T03:08:56;4.90;;;4.50;;
46931;SDS011;32670;51.464;11.964;2023-09-07T03:11:22;4.30;;;4.00;;
46931;SDS011;32670;51.464;11.964;2023-09-07T03:13:47;4.43;;;4.03;;
46931;SDS011;32670;51.464;11.964;2023-09-07T03:16:13;5.33;;;4.50;;
46931;SDS011;32670;51.464;11.964;2023-09-07T03:18:38;5.20;;;4.70;;
46931;SDS011;32670;51.464;11.964;2023-09-07T03:21:04;4.60;;;4.27;;
46931;SDS011;32670;51.464;11.964;2023-09-07T03:23:30;5.20;;;4.40;;
46931;SDS011;32670;51.464;11.964;2023-09-07T03:25:57;4.63;;;4.20;;
46931;SDS011;32670;51.464;11.964;2023-09-07T03:28:23;6.00;;;4.50;;
46931;SDS011;32670;51.464;11.964;2023-09-07T03:30:50;5.17;;;4.37;;
46931;SDS011;32670;51.464;11.964;2023-09-07T03:33:16;5.03;;;4.53;;
46931;SDS011;32670;51.464;11.964;2023-09-07T03:35:41;5.60;;;4.40;;
46931;SDS011;32670;51.464;11.964;2023-09-07T03:38:07;5.00;;;4.50;;
46931;SDS011;32670;51.464;11.964;2023-09-07T03:40:33;5.07;;;4.57;;
46931;SDS011;32670;51.464;11.964;2023-09-07T03:42:59;4.60;;;4.20;;
46931;SDS011;32670;51.464;11.964;2023-09-07T03:45:24;5.07;;;4.67;;
46931;SDS011;32670;51.464;11.964;2023-09-07T03:47:50;5.10;;;4.60;;
46931;SDS011;32670;51.464;11.964;2023-09-07T03:50:15;5.20;;;4.70;;
46931;SDS011;32670;51.464;11.964;2023-09-07T03:52:41;5.13;;;4.33;;
46931;SDS011;32670;51.464;11.964;2023-09-07T03:55:06;10.07;;;4.63;;
46931;SDS011;32670;51.464;11.964;2023-09-07T03:57:32;5.53;;;4.40;;
46931;SDS011;32670;51.464;11.964;2023-09-07T03:59:57;5.00;;;4.50;;
46931;SDS011;32670;51.464;11.964;2023-09-07T04:02:23;6.70;;;4.90;;
46931;SDS011;32670;51.464;11.964;2023-09-07T04:04:50;6.20;;;5.07;;
46931;SDS011;32670;51.464;11.964;2023-09-07T04:07:20;5.53;;;5.03;;
46931;SDS011;32670;51.464;11.964;2023-09-07T04:09:45;5.47;;;4.97;;
46931;SDS011;32670;51.464;11.964;2023-09-07T04:12:11;5.63;;;5.13;;
46931;SDS011;32670;51.464;11.964;2023-09-07T04:14:37;5.33;;;4.93;;
46931;SDS011;32670;51.464;11.964;2023-09-07T04:17:03;5.33;;;4.70;;
46931;SDS011;32670;51.464;11.964;2023-09-07T04:19:29;5.37;;;4.87;;
46931;SDS011;32670;51.464;11.964;2023-09-07T04:21:56;22.53;;;5.83;;
46931;SDS011;32670;51.464;11.964;2023-09-07T04:24:22;5.73;;;5.13;;
46931;SDS011;32670;51.464;11.964;2023-09-07T04:26:48;5.93;;;5.33;;
46931;SDS011;32670;51.464;11.964;2023-09-07T04:29:14;6.97;;;4.90;;
46931;SDS011;32670;51.464;11.964;2023-09-07T04:31:40;5.20;;;4.70;;
46931;SDS011;32670;51.464;11.964;2023-09-07T04:34:06;5.33;;;4.83;;
46931;SDS011;32670;51.464;11.964;2023-09-07T04:36:32;5.00;;;4.50;;
46931;SDS011;32670;51.464;11.964;2023-09-07T04:38:58;5.50;;;4.90;;
46931;SDS011;32670;51.464;11.964;2023-09-07T04:41:23;5.87;;;5.27;;
46931;SDS011;32670;51.464;11.964;2023-09-07T04:43:49;5.93;;;5.33;;
46931;SDS011;32670;51.464;11.964;2023-09-07T04:46:14;6.17;;;5.67;;
46931;SDS011;32670;51.464;11.964;2023-09-07T04:48:40;6.57;;;5.23;;
46931;SDS011;32670;51.464;11.964;2023-09-07T04:51:06;6.00;;;5.50;;
46931;SDS011;32670;51.464;11.964;2023-09-07T04:53:34;8.97;;;5.47;;
46931;SDS011;32670;51.464;11.964;2023-09-07T04:56:02;7.50;;;5.57;;
46931;SDS011;32670;51.464;11.964;2023-09-07T04:58:28;7.27;;;5.53;;
46931;SDS011;32670;51.464;11.964;2023-09-07T05:00:54;6.00;;;5.50;;
46931;SDS011;32670;51.464;11.964;2023-09-07T05:03:25;5.77;;;5.17;;
46931;SDS011;32670;51.464;11.964;2023-09-07T05:05:52;6.40;;;5.80;;
46931;SDS011;32670;51.464;11.964;2023-09-07T05:08:18;5.97;;;5.37;;
46931;SDS011;32670;51.464;11.964;2023-09-07T05:10:44;5.33;;;4.83;;
46931;SDS011;32670;51.464;11.964;2023-09-07T05:13:09;8.00;;;5.50;;
46931;SDS011;32670;51.464;11.964;2023-09-07T05:15:35;5.20;;;4.60;;
46931;SDS011;32670;51.464;11.964;2023-09-07T05:18:00;5.97;;;5.30;;
46931;SDS011;32670;51.464;11.964;2023-09-07T05:20:26;6.67;;;6.07;;
46931;SDS011;32670;51.464;11.964;2023-09-07T05:22:54;7.53;;;6.00;;
46931;SDS011;32670;51.464;11.964;2023-09-07T05:25:21;6.40;;;5.80;;
46931;SDS011;32670;51.464;11.964;2023-09-07T05:27:48;6.80;;;5.97;;
46931;SDS011;32670;51.464;11.964;2023-09-07T05:30:14;7.83;;;6.07;;
46931;SDS011;32670;51.464;11.964;2023-09-07T05:32:39;6.47;;;5.83;;
46931;SDS011;32670;51.464;11.964;2023-09-07T05:35:06;10.47;;;6.03;;
46931;SDS011;32670;51.464;11.964;2023-09-07T05:37:32;6.70;;;6.03;;
46931;SDS011;32670;51.464;11.964;2023-09-07T05:39:58;7.87;;;5.83;;
46931;SDS011;32670;51.464;11.964;2023-09-07T05:42:23;7.50;;;5.90;;
46931;SDS011;32670;51.464;11.964;2023-09-07T05:44:50;9.40;;;6.10;;
46931;SDS011;32670;51.464;11.964;2023-09-07T05:47:16;6.10;;;5.50;;
46931;SDS011;32670;51.464;11.964;2023-09-07T05:49:42;8.40;;;6.17;;
46931;SDS011;32670;51.464;11.964;2023-09-07T05:52:08;6.97;;;6.00;;
46931;SDS011;32670;51.464;11.964;2023-09-07T05:54:33;7.10;;;5.90;;
46931;SDS011;32670;51.464;11.964;2023-09-07T05:56:59;6.40;;;5.73;;
46931;SDS011;32670;51.464;11.964;2023-09-07T05:59:24;10.07;;;5.97;;
46931;SDS011;32670;51.464;11.964;2023-09-07T06:01:50;6.60;;;5.90;;
46931;SDS011;32670;51.464;11.964;2023-09-07T06:04:15;7.83;;;5.63;;
46931;SDS011;32670;51.464;11.964;2023-09-07T06:06:41;8.07;;;5.80;;
46931;SDS011;32670;51.464;11.964;2023-09-07T06:09:06;7.60;;;5.97;;
46931;SDS011;32670;51.464;11.964;2023-09-07T06:11:32;7.70;;;5.70;;
46931;SDS011;32670;51.464;11.964;2023-09-07T06:13:58;6.73;;;6.13;;
46931;SDS011;32670;51.464;11.964;2023-09-07T06:16:23;6.73;;;6.00;;
46931;SDS011;32670;51.464;11.964;2023-09-07T06:18:49;8.57;;;5.97;;
46931;SDS011;32670;51.464;11.964;2023-09-07T06:21:14;7.17;;;5.90;;
46931;SDS011;32670;51.464;11.964;2023-09-07T06:23:40;6.47;;;5.73;;
46931;SDS011;32670;51.464;11.964;2023-09-07T06:26:05;6.70;;;6.10;;
46931;SDS011;32670;51.464;11.964;2023-09-07T06:28:31;6.47;;;5.73;;
46931;SDS011;32670;51.464;11.964;2023-09-07T06:30:56;6.10;;;5.50;;
46931;SDS011;32670;51.464;11.964;2023-09-07T06:33:22;7.83;;;5.20;;
46931;SDS011;32670;51.464;11.964;2023-09-07T06:35:47;16.23;;;5.57;;
46931;SDS011;32670;51.464;11.964;2023-09-07T06:38:13;10.13;;;4.87;;
46931;SDS011;32670;51.464;11.964;2023-09-07T06:40:39;11.37;;;4.57;;
46931;SDS011;32670;51.464;11.964;2023-09-07T06:43:04;6.33;;;5.00;;
46931;SDS011;32670;51.464;11.964;2023-09-07T06:45:33;8.40;;;5.07;;
46931;SDS011;32670;51.464;11.964;2023-09-07T06:48:02;9.03;;;5.13;;
46931;SDS011;32670;51.464;11.964;2023-09-07T06:50:28;9.37;;;5.07;;
46931;SDS011;32670;51.464;11.964;2023-09-07T06:52:54;9.80;;;5.77;;
46931;SDS011;32670;51.464;11.964;2023-09-07T06:55:19;16.70;;;5.10;;
46931;SDS011;32670;51.464;11.964;2023-09-07T06:57:45;9.50;;;4.90;;
46931;SDS011;32670;51.464;11.964;2023-09-07T07:00:11;8.67;;;4.90;;
46931;SDS011;32670;51.464;11.964;2023-09-07T07:02:37;8.47;;;5.13;;
46931;SDS011;32670;51.464;11.964;2023-09-07T07:05:02;8.87;;;4.97;;
46931;SDS011;32670;51.464;11.964;2023-09-07T07:07:28;13.27;;;5.43;;
46931;SDS011;32670;51.464;11.964;2023-09-07T07:09:54;7.77;;;5.20;;
46931;SDS011;32670;51.464;11.964;2023-09-07T07:12:20;9.27;;;5.23;;
46931;SDS011;32670;51.464;11.964;2023-09-07T07:14:46;6.40;;;5.40;;
46931;SDS011;32670;51.464;11.964;2023-09-07T07:17:11;8.90;;;5.87;;
46931;SDS011;32670;51.464;11.964;2023-09-07T07:19:37;8.50;;;5.57;;
46931;SDS011;32670;51.464;11.964;2023-09-07T07:22:03;10.03;;;6.60;;
46931;SDS011;32670;51.464;11.964;2023-09-07T07:24:28;7.80;;;5.90;;
46931;SDS011;32670;51.464;11.964;2023-09-07T07:26:54;6.63;;;6.03;;
46931;SDS011;32670;51.464;11.964;2023-09-07T07:29:19;9.67;;;6.43;;
46931;SDS011;32670;51.464;11.964;2023-09-07T07:31:45;8.17;;;5.87;;
46931;SDS011;32670;51.464;11.964;2023-09-07T07:34:11;6.47;;;5.90;;
46931;SDS011;32670;51.464;11.964;2023-09-07T07:36:37;8.87;;;6.23;;
46931;SDS011;32670;51.464;11.964;2023-09-07T07:39:03;7.20;;;6.43;;
46931;SDS011;32670;51.464;11.964;2023-09-07T07:41:29;8.50;;;5.90;;
46931;SDS011;32670;51.464;11.964;2023-09-07T07:43:55;7.47;;;6.07;;
46931;SDS011;32670;51.464;11.964;2023-09-07T07:46:20;6.37;;;5.43;;
46931;SDS011;32670;51.464;11.964;2023-09-07T07:48:46;6.50;;;5.90;;
46931;SDS011;32670;51.464;11.964;2023-09-07T07:51:11;6.40;;;5.87;;
46931;SDS011;32670;51.464;11.964;2023-09-07T07:53:37;6.40;;;5.80;;
46931;SDS011;32670;51.464;11.964;2023-09-07T07:56:02;5.90;;;5.40;;
46931;SDS011;32670;51.464;11.964;2023-09-07T07:58:28;6.80;;;6.10;;
46931;SDS011;32670;51.464;11.964;2023-09-07T08:00:54;7.57;;;6.50;;
46931;SDS011;32670;51.464;11.964;2023-09-07T08:03:22;6.00;;;5.40;;
46931;SDS011;32670;51.464;11.964;2023-09-07T08:05:48;6.67;;;5.73;;
46931;SDS011;32670;51.464;11.964;2023-09-07T08:08:14;6.37;;;5.13;;
46931;SDS011;32670;51.464;11.964;2023-09-07T08:10:39;6.00;;;5.40;;
46931;SDS011;32670;51.464;11.964;2023-09-07T08:13:06;8.13;;;5.83;;
46931;SDS011;32670;51.464;11.964;2023-09-07T08:15:32;5.70;;;5.20;;
46931;SDS011;32670;51.464;11.964;2023-09-07T08:17:59;6.50;;;5.83;;
46931;SDS011;32670;51.464;11.964;2023-09-07T08:20:25;6.40;;;5.73;;
46931;SDS011;32670;51.464;11.964;2023-09-07T08:22:51;9.17;;;6.10;;
46931;SDS011;32670;51.464;11.964;2023-09-07T08:25:17;8.73;;;5.73;;
46931;SDS011;32670;51.464;11.964;2023-09-07T08:27:43;6.23;;;5.63;;
46931;SDS011;32670;51.464;11.964;2023-09-07T08:30:11;7.57;;;5.70;;
46931;SDS011;32670;51.464;11.964;2023-09-07T08:32:38;9.90;;;5.27;;
46931;SDS011;32670;51.464;11.964;2023-09-07T08:35:04;8.73;;;4.90;;
46931;SDS011;32670;51.464;11.964;2023-09-07T08:37:32;6.27;;;5.03;;
46931;SDS011;32670;51.464;11.964;2023-09-07T08:39:58;5.87;;;5.27;;
46931;SDS011;32670;51.464;11.964;2023-09-07T08:42:24;5.37;;;4.87;;
46931;SDS011;32670;51.464;11.964;2023-09-07T08:44:50;4.93;;;4.40;;
46931;SDS011;32670;51.464;11.964;2023-09-07T08:47:18;5.27;;;4.57;;
46931;SDS011;32670;51.464;11.964;2023-09-07T08:49:44;5.00;;;4.50;;
46931;SDS011;32670;51.464;11.964;2023-09-07T08:52:12;5.57;;;4.60;;
46931;SDS011;32670;51.464;11.964;2023-09-07T08:54:40;9.07;;;4.80;;
46931;SDS011;32670;51.464;11.964;2023-09-07T08:57:07;15.07;;;4.63;;
46931;SDS011;32670;51.464;11.964;2023-09-07T08:59:35;13.90;;;4.57;;
46931;SDS011;32670;51.464;11.964;2023-09-07T09:02:01;9.40;;;4.20;;
46931;SDS011;32670;51.464;11.964;2023-09-07T09:04:29;8.87;;;4.20;;
46931;SDS011;32670;51.464;11.964;2023-09-07T09:06:55;13.10;;;4.53;;
46931;SDS011;32670;51.464;11.964;2023-09-07T09:09:21;7.57;;;4.40;;
46931;SDS011;32670;51.464;11.964;2023-09-07T09:11:48;6.20;;;4.60;;
46931;SDS011;32670;51.464;11.964;2023-09-07T09:14:16;9.00;;;4.70;;
46931;SDS011;32670;51.464;11.964;2023-09-07T09:16:48;6.90;;;4.23;;
46931;SDS011;32670;51.464;11.964;2023-09-07T09:19:15;4.70;;;4.03;;
46931;SDS011;32670;51.464;11.964;2023-09-07T09:21:41;6.60;;;4.57;;
46931;SDS011;32670;51.464;11.964;2023-09-07T09:24:09;8.57;;;4.50;;
46931;SDS011;32670;51.464;11.964;2023-09-07T09:26:39;7.00;;;4.47;;
46931;SDS011;32670;51.464;11.964;2023-09-07T09:29:04;6.80;;;3.90;;
46931;SDS011;32670;51.464;11.964;2023-09-07T09:31:30;5.50;;;4.10;;
46931;SDS011;32670;51.464;11.964;2023-09-07T09:33:56;5.70;;;3.90;;
46931;SDS011;32670;51.464;11.964;2023-09-07T09:36:23;4.97;;;3.90;;
46931;SDS011;32670;51.464;11.964;2023-09-07T09:38:49;4.73;;;4.20;;
46931;SDS011;32670;51.464;11.964;2023-09-07T09:41:17;6.97;;;4.00;;
46931;SDS011;32670;51.464;11.964;2023-09-07T09:43:43;6.90;;;4.00;;
46931;SDS011;32670;51.464;11.964;2023-09-07T09:46:14;5.27;;;4.20;;
46931;SDS011;32670;51.464;11.964;2023-09-07T09:48:40;6.20;;;4.60;;
46931;SDS011;32670;51.464;11.964;2023-09-07T09:51:07;6.83;;;4.10;;
46931;SDS011;32670;51.464;11.964;2023-09-07T09:53:33;6.33;;;4.47;;
46931;SDS011;32670;51.464;11.964;2023-09-07T09:55:59;6.37;;;4.17;;
46931;SDS011;32670;51.464;11.964;2023-09-07T09:58:25;5.13;;;4.43;;
46931;SDS011;32670;51.464;11.964;2023-09-07T10:00:53;7.57;;;4.37;;
46931;SDS011;32670;51.464;11.964;2023-09-07T10:03:29;6.53;;;4.30;;
46931;SDS011;32670;51.464;11.964;2023-09-07T10:06:07;4.23;;;3.83;;
46931;SDS011;32670;51.464;11.964;2023-09-07T10:08:36;6.20;;;4.43;;
46931;SDS011;32670;51.464;11.964;2023-09-07T10:11:07;4.37;;;4.00;;
46931;SDS011;32670;51.464;11.964;2023-09-07T10:13:34;4.13;;;3.83;;
46931;SDS011;32670;51.464;11.964;2023-09-07T10:16:00;4.70;;;4.20;;
46931;SDS011;32670;51.464;11.964;2023-09-07T10:18:36;5.23;;;3.87;;
46931;SDS011;32670;51.464;11.964;2023-09-07T10:21:03;6.23;;;3.93;;
46931;SDS011;32670;51.464;11.964;2023-09-07T10:23:41;5.47;;;4.10;;
46931;SDS011;32670;51.464;11.964;2023-09-07T10:26:15;4.37;;;3.60;;
46931;SDS011;32670;51.464;11.964;2023-09-07T10:28:43;4.43;;;4.03;;
46931;SDS011;32670;51.464;11.964;2023-09-07T10:31:16;4.87;;;4.30;;
46931;SDS011;32670;51.464;11.964;2023-09-07T10:33:42;4.67;;;3.70;;
46931;SDS011;32670;51.464;11.964;2023-09-07T10:36:08;4.10;;;3.63;;
46931;SDS011;32670;51.464;11.964;2023-09-07T10:38:49;4.57;;;4.00;;
46931;SDS011;32670;51.464;11.964;2023-09-07T10:41:17;4.23;;;3.73;;
46931;SDS011;32670;51.464;11.964;2023-09-07T10:43:46;3.93;;;3.63;;
46931;SDS011;32670;51.464;11.964;2023-09-07T10:46:13;4.77;;;3.77;;
46931;SDS011;32670;51.464;11.964;2023-09-07T10:48:39;4.23;;;3.83;;
46931;SDS011;32670;51.464;11.964;2023-09-07T10:51:05;5.67;;;3.97;;
46931;SDS011;32670;51.464;11.964;2023-09-07T10:53:31;4.03;;;3.63;;
46931;SDS011;32670;51.464;11.964;2023-09-07T10:56:06;3.73;;;3.43;;
46931;SDS011;32670;51.464;11.964;2023-09-07T10:58:36;3.90;;;3.60;;
46931;SDS011;32670;51.464;11.964;2023-09-07T11:01:07;3.90;;;3.60;;
46931;SDS011;32670;51.464;11.964;2023-09-07T11:03:34;6.87;;;4.10;;
46931;SDS011;32670;51.464;11.964;2023-09-07T11:06:03;4.00;;;3.60;;
46931;SDS011;32670;51.464;11.964;2023-09-07T11:08:29;4.20;;;3.80;;
46931;SDS011;32670;51.464;11.964;2023-09-07T11:10:55;4.40;;;4.00;;
46931;SDS011;32670;51.464;11.964;2023-09-07T11:13:21;3.93;;;3.63;;
46931;SDS011;32670;51.464;11.964;2023-09-07T11:15:48;4.20;;;3.90;;
46931;SDS011;32670;51.464;11.964;2023-09-07T11:18:18;4.83;;;4.30;;
46931;SDS011;32670;51.464;11.964;2023-09-07T11:20:45;3.90;;;3.60;;
46931;SDS011;32670;51.464;11.964;2023-09-07T11:23:10;4.73;;;4.00;;
46931;SDS011;32670;51.464;11.964;2023-09-07T11:25:37;3.97;;;3.67;;
46931;SDS011;32670;51.464;11.964;2023-09-07T11:28:03;4.37;;;3.97;;
46931;SDS011;32670;51.464;11.964;2023-09-07T11:30:32;4.47;;;4.07;;
46931;SDS011;32670;51.464;11.964;2023-09-07T11:35:26;4.80;;;3.87;;
46931;SDS011;32670;51.464;11.964;2023-09-07T11:37:52;4.97;;;3.80;;
46931;SDS011;32670;51.464;11.964;2023-09-07T11:40:18;4.07;;;3.77;;
46931;SDS011;32670;51.464;11.964;2023-09-07T11:42:44;3.87;;;3.57;;
46931;SDS011;32670;51.464;11.964;2023-09-07T11:45:09;3.87;;;3.57;;
46931;SDS011;32670;51.464;11.964;2023-09-07T11:47:35;3.77;;;3.47;;
46931;SDS011;32670;51.464;11.964;2023-09-07T11:50:01;3.90;;;3.60;;
46931;SDS011;32670;51.464;11.964;2023-09-07T11:52:27;4.17;;;3.77;;
46931;SDS011;32670;51.464;11.964;2023-09-07T11:54:53;3.77;;;3.47;;
46931;SDS011;32670;51.464;11.964;2023-09-07T11:57:18;4.10;;;3.80;;
46931;SDS011;32670;51.464;11.964;2023-09-07T11:59:44;4.07;;;3.70;;
46931;SDS011;32670;51.464;11.964;2023-09-07T12:02:09;3.90;;;3.60;;
46931;SDS011;32670;51.464;11.964;2023-09-07T12:04:39;3.93;;;3.63;;
46931;SDS011;32670;51.464;11.964;2023-09-07T12:07:05;4.40;;;4.00;;
46931;SDS011;32670;51.464;11.964;2023-09-07T12:09:31;4.47;;;3.97;;
46931;SDS011;32670;51.464;11.964;2023-09-07T12:11:56;4.40;;;4.10;;
46931;SDS011;32670;51.464;11.964;2023-09-07T12:14:22;4.50;;;4.10;;
46931;SDS011;32670;51.464;11.964;2023-09-07T12:16:47;3.73;;;3.43;;
46931;SDS011;32670;51.464;11.964;2023-09-07T12:19:13;4.70;;;4.30;;
46931;SDS011;32670;51.464;11.964;2023-09-07T12:21:38;4.70;;;4.30;;
46931;SDS011;32670;51.464;11.964;2023-09-07T12:24:04;5.27;;;4.20;;
46931;SDS011;32670;51.464;11.964;2023-09-07T12:26:30;4.50;;;4.10;;
46931;SDS011;32670;51.464;11.964;2023-09-07T12:28:56;4.70;;;4.30;;
46931;SDS011;32670;51.464;11.964;2023-09-07T12:31:21;4.10;;;3.70;;
46931;SDS011;32670;51.464;11.964;2023-09-07T12:33:47;4.37;;;4.07;;
46931;SDS011;32670;51.464;11.964;2023-09-07T12:36:12;4.50;;;4.10;;
46931;SDS011;32670;51.464;11.964;2023-09-07T12:38:38;4.40;;;4.10;;
46931;SDS011;32670;51.464;11.964;2023-09-07T12:41:03;4.63;;;4.10;;
46931;SDS011;32670;51.464;11.964;2023-09-07T12:43:29;5.03;;;4.00;;
46931;SDS011;32670;51.464;11.964;2023-09-07T12:45:55;4.80;;;4.30;;
46931;SDS011;32670;51.464;11.964;2023-09-07T12:48:20;5.37;;;4.90;;
46931;SDS011;32670;51.464;11.964;2023-09-07T12:50:46;5.07;;;4.63;;
46931;SDS011;32670;51.464;11.964;2023-09-07T12:53:11;4.83;;;4.43;;
46931;SDS011;32670;51.464;11.964;2023-09-07T12:55:37;5.23;;;4.70;;
46931;SDS011;32670;51.464;11.964;2023-09-07T12:58:03;4.70;;;4.30;;
46931;SDS011;32670;51.464;11.964;2023-09-07T13:00:28;4.70;;;4.30;;
46931;SDS011;32670;51.464;11.964;2023-09-07T13:02:54;4.90;;;4.50;;
46931;SDS011;32670;51.464;11.964;2023-09-07T13:05:20;5.10;;;4.60;;
46931;SDS011;32670;51.464;11.964;2023-09-07T13:07:46;4.33;;;3.97;;
46931;SDS011;32670;51.464;11.964;2023-09-07T13:10:12;4.70;;;4.40;;
46931;SDS011;32670;51.464;11.964;2023-09-07T13:12:37;4.77;;;4.37;;
46931;SDS011;32670;51.464;11.964;2023-09-07T13:15:03;4.97;;;4.57;;
46931;SDS011;32670;51.464;11.964;2023-09-07T13:17:29;4.60;;;4.20;;
46931;SDS011;32670;51.464;11.964;2023-09-07T13:19:55;5.03;;;4.50;;
46931;SDS011;32670;51.464;11.964;2023-09-07T13:22:20;4.97;;;4.57;;
46931;SDS011;32670;51.464;11.964;2023-09-07T13:24:46;5.17;;;4.67;;
46931;SDS011;32670;51.464;11.964;2023-09-07T13:27:11;4.80;;;4.40;;
46931;SDS011;32670;51.464;11.964;2023-09-07T13:29:37;4.90;;;4.40;;
46931;SDS011;32670;51.464;11.964;2023-09-07T13:32:02;4.90;;;4.50;;
46931;SDS011;32670;51.464;11.964;2023-09-07T13:34:28;4.67;;;4.27;;
46931;SDS011;32670;51.464;11.964;2023-09-07T13:36:54;5.27;;;4.77;;
46931;SDS011;32670;51.464;11.964;2023-09-07T13:39:20;5.07;;;4.67;;
46931;SDS011;32670;51.464;11.964;2023-09-07T13:41:46;5.43;;;4.90;;
46931;SDS011;32670;51.464;11.964;2023-09-07T13:44:13;4.67;;;4.27;;
46931;SDS011;32670;51.464;11.964;2023-09-07T13:46:39;5.03;;;4.63;;
46931;SDS011;32670;51.464;11.964;2023-09-07T13:49:05;5.30;;;4.80;;
46931;SDS011;32670;51.464;11.964;2023-09-07T13:51:30;4.73;;;4.33;;
46931;SDS011;32670;51.464;11.964;2023-09-07T13:54:04;4.80;;;4.40;;
46931;SDS011;32670;51.464;11.964;2023-09-07T13:56:31;5.10;;;4.70;;
46931;SDS011;32670;51.464;11.964;2023-09-07T13:58:57;5.03;;;4.63;;
46931;SDS011;32670;51.464;11.964;2023-09-07T14:01:22;5.07;;;4.57;;
46931;SDS011;32670;51.464;11.964;2023-09-07T14:03:49;5.47;;;4.80;;
46931;SDS011;32670;51.464;11.964;2023-09-07T14:06:14;4.87;;;4.47;;
46931;SDS011;32670;51.464;11.964;2023-09-07T14:08:40;5.50;;;5.00;;
46931;SDS011;32670;51.464;11.964;2023-09-07T14:11:06;5.10;;;4.70;;
46931;SDS011;32670;51.464;11.964;2023-09-07T14:13:32;4.93;;;4.53;;
46931;SDS011;32670;51.464;11.964;2023-09-07T14:16:00;7.43;;;6.03;;
46931;SDS011;32670;51.464;11.964;2023-09-07T14:18:25;5.47;;;4.97;;
46931;SDS011;32670;51.464;11.964;2023-09-07T14:20:51;5.77;;;5.27;;
46931;SDS011;32670;51.464;11.964;2023-09-07T14:23:17;5.60;;;5.10;;
46931;SDS011;32670;51.464;11.964;2023-09-07T14:25:45;5.23;;;4.83;;
46931;SDS011;32670;51.464;11.964;2023-09-07T14:28:12;5.47;;;4.93;;
46931;SDS011;32670;51.464;11.964;2023-09-07T14:30:38;5.17;;;4.77;;